< < Back
Terminal Aerodrome Forecast


Current Version              Previous Versions:   1  2  3  4  5  6  7  8  9  

Terminal Aerodrome Forecast

700
FTUS42 KMLB 310900 AAA
TAFMCO
TAF AMD
KMCO 310910Z 3109/0106 36006KT P6SM VCSH SCT060 BKN080 BKN250
      TEMPO 3109/3111 BKN030 BKN060
     FM311300 31008KT P6SM FEW040 SCT250
     FM311600 32011KT P6SM FEW250=

Latest METAR

407
SAUS70 KWBC 311100 RRH
MTRMCO
METAR KMCO 311053Z 35006KT 10SM SCT041 BKN070 20/18 A2985 RMK AO2 SLP106
T02000178


USA.gov is the U.S. government's official web portal to all federal, state and local government web resources and services.